Time;durP1;ratioP1;P1;durP2;ratioP2;P2;SDS_P1;SDS_P2;PMS_P1;PMS_P2;Temp;Humidity;BMP_temperature;BMP_pressure;BME280_temperature;BME280_humidity;BME280_pressure;Samples;Min_cycle;Max_cycle;Signal;HPM_P1;HPM_P2
2021/06/06 00:00:09;;;;;;;133.73;79.45;;;14.70;99.90;;;;;;5115620;28;20509;-88
2021/06/06 00:02:35;;;;;;;125.00;76.95;;;14.90;99.90;;;;;;5115538;28;20447;-87
2021/06/06 00:05:03;;;;;;;116.30;73.13;;;14.80;99.90;;;;;;5115747;28;20415;-86
2021/06/06 00:07:29;;;;;;;127.15;77.07;;;14.80;99.90;;;;;;5115478;28;20412;-87
2021/06/06 00:09:56;;;;;;;145.32;85.82;;;15.60;99.90;;;;;;5115423;28;20408;-87
2021/06/06 00:12:22;;;;;;;135.20;80.82;;;14.80;99.90;;;;;;5115098;28;20787;-87
2021/06/06 00:14:48;;;;;;;131.60;79.53;;;14.70;99.90;;;;;;5115549;28;20408;-87
2021/06/06 00:17:15;;;;;;;122.03;77.68;;;14.70;99.90;;;;;;5115530;28;20423;-86
2021/06/06 00:19:41;;;;;;;128.33;76.00;;;14.90;99.90;;;;;;5115610;28;20453;-87
2021/06/06 00:22:10;;;;;;;135.75;80.57;;;14.70;99.90;;;;;;5115164;28;20439;-88
2021/06/06 00:24:38;;;;;;;137.20;80.00;;;14.70;99.90;;;;;;5115234;28;20408;-87
2021/06/06 00:27:06;;;;;;;123.95;79.63;;;15.80;99.90;;;;;;5115944;28;20787;-88
2021/06/06 00:29:33;;;;;;;125.53;79.07;;;14.70;99.90;;;;;;5115809;28;20415;-87
2021/06/06 00:31:59;;;;;;;130.10;77.35;;;14.60;99.90;;;;;;5113839;28;20412;-88
2021/06/06 00:34:26;;;;;;;125.00;77.15;;;14.60;99.90;;;;;;5115250;28;20414;-87
2021/06/06 00:36:53;;;;;;;122.40;75.45;;;14.60;99.90;;;;;;5115866;28;20771;-87
2021/06/06 00:39:21;;;;;;;124.47;78.22;;;15.00;99.90;;;;;;5115261;28;20419;-87
2021/06/06 00:41:50;;;;;;;131.95;81.13;;;14.70;99.90;;;;;;5115606;28;20503;-86
2021/06/06 00:44:17;;;;;;;143.15;82.85;;;14.70;99.90;;;;;;5115711;28;20658;-87
2021/06/06 00:46:44;;;;;;;144.80;85.63;;;14.50;99.90;;;;;;5117508;28;20408;-87
2021/06/06 00:49:11;;;;;;;163.23;91.00;;;14.60;99.90;;;;;;5122745;28;20412;-87
2021/06/06 00:51:42;;;;;;;163.10;94.30;;;14.60;99.90;;;;;;5128701;28;20513;-89
2021/06/06 00:54:12;;;;;;;170.87;98.93;;;14.50;99.90;;;;;;5126668;28;20522;-89
2021/06/06 00:56:44;;;;;;;171.37;98.03;;;14.60;99.90;;;;;;5119105;28;20519;-87
2021/06/06 00:59:11;;;;;;;165.57;94.70;;;14.50;99.90;;;;;;5125197;28;20405;-87
2021/06/06 01:01:37;;;;;;;164.25;95.18;;;14.60;99.90;;;;;;5114790;28;20484;-87
2021/06/06 01:04:04;;;;;;;160.88;95.80;;;14.40;99.90;;;;;;5114560;28;20416;-88
2021/06/06 01:06:33;;;;;;;175.20;98.30;;;14.60;99.90;;;;;;5114672;28;20880;-87
2021/06/06 01:09:00;;;;;;;171.75;99.32;;;14.50;99.90;;;;;;5114346;28;20420;-87
2021/06/06 01:11:35;;;;;;;160.48;93.57;;;14.80;99.90;;;;;;5114423;28;20452;-87
2021/06/06 01:14:06;;;;;;;133.50;83.63;;;14.60;99.90;;;;;;5114125;28;20415;-87
2021/06/06 01:16:36;;;;;;;129.20;82.03;;;14.70;99.90;;;;;;5114314;28;20415;-87
2021/06/06 01:19:09;;;;;;;116.80;70.33;;;14.50;99.90;;;;;;5114016;28;20405;-87
2021/06/06 01:22:01;;;;;;;119.50;71.10;;;14.50;99.90;;;;;;5113997;28;20416;-87
2021/06/06 01:24:34;;;;;;;131.13;74.55;;;14.50;99.90;;;;;;5114330;28;20519;-88
2021/06/06 01:27:04;;;;;;;118.35;71.65;;;14.50;99.90;;;;;;5113941;28;20418;-88
2021/06/06 01:29:37;;;;;;;110.97;68.83;;;14.50;99.90;;;;;;5114620;28;20420;-88
2021/06/06 01:32:11;;;;;;;108.90;68.38;;;14.40;99.90;;;;;;5115164;28;20458;-88
2021/06/06 01:34:37;;;;;;;108.13;66.85;;;14.50;99.90;;;;;;5114745;28;20424;-88
2021/06/06 01:37:07;;;;;;;120.05;72.85;;;14.10;99.90;;;;;;5125119;28;20409;-87
2021/06/06 01:39:39;;;;;;;104.85;69.05;;;14.40;99.90;;;;;;5136243;28;20405;-88
2021/06/06 01:42:09;;;;;;;116.70;71.57;;;14.40;99.90;;;;;;5137228;28;20472;-87
2021/06/06 01:44:37;;;;;;;126.17;78.77;;;14.50;99.90;;;;;;5131726;28;20404;-88
2021/06/06 01:47:08;;;;;;;134.95;81.13;;;14.40;99.90;;;;;;5123157;28;20408;-87
2021/06/06 01:49:40;;;;;;;144.77;81.60;;;14.40;99.90;;;;;;5114254;28;20504;-87
2021/06/06 01:52:10;;;;;;;128.57;79.95;;;14.40;99.90;;;;;;5114129;28;20435;-88
2021/06/06 01:54:40;;;;;;;146.07;84.90;;;14.40;99.90;;;;;;5114321;28;20491;-87
2021/06/06 01:57:09;;;;;;;137.00;82.50;;;14.40;99.90;;;;;;5113210;28;20447;-87
2021/06/06 01:59:39;;;;;;;121.55;73.43;;;14.40;99.90;;;;;;5113370;28;20426;-87
2021/06/06 02:02:06;;;;;;;108.70;66.70;;;14.40;99.90;;;;;;5113573;28;20810;-87
2021/06/06 02:04:34;;;;;;;106.70;67.80;;;14.40;99.90;;;;;;5113693;28;20426;-87
2021/06/06 02:07:05;;;;;;;106.97;68.78;;;14.40;99.90;;;;;;5112829;28;20585;-88
2021/06/06 02:09:37;;;;;;;101.00;65.00;;;14.40;99.90;;;;;;5113118;28;20420;-87
2021/06/06 02:12:07;;;;;;;102.68;62.92;;;14.40;99.90;;;;;;5113074;28;20428;-88
2021/06/06 02:14:37;;;;;;;96.20;59.38;;;14.40;99.90;;;;;;5113468;28;20492;-87
2021/06/06 02:17:07;;;;;;;91.63;57.80;;;14.40;99.90;;;;;;5113380;28;20426;-87
2021/06/06 02:19:35;;;;;;;94.93;58.63;;;14.00;99.90;;;;;;5113380;28;20485;-88
2021/06/06 02:22:06;;;;;;;96.90;58.55;;;14.30;99.90;;;;;;5114350;28;20515;-88
2021/06/06 02:24:34;;;;;;;86.90;56.83;;;14.20;99.90;;;;;;5113811;28;20428;-89
2021/06/06 02:27:06;;;;;;;87.80;56.35;;;14.30;99.90;;;;;;5113082;28;20416;-88
2021/06/06 02:29:40;;;;;;;92.43;60.08;;;14.30;99.90;;;;;;5113549;28;20763;-89
2021/06/06 02:32:12;;;;;;;98.70;60.85;;;13.80;99.90;;;;;;5113287;28;20493;-89
2021/06/06 02:34:44;;;;;;;87.28;60.22;;;14.20;99.90;;;;;;5112979;28;20408;-89
2021/06/06 02:37:15;;;;;;;87.30;56.10;;;14.20;99.90;;;;;;5113760;28;20473;-89
2021/06/06 02:39:46;;;;;;;78.13;54.63;;;14.30;99.90;;;;;;5116225;28;20443;-88
2021/06/06 02:42:18;;;;;;;79.75;54.63;;;14.30;99.90;;;;;;5116307;28;20427;-87
2021/06/06 02:44:48;;;;;;;72.65;49.53;;;13.80;99.90;;;;;;5116867;28;20413;-88
2021/06/06 02:47:18;;;;;;;72.32;49.30;;;14.20;99.90;;;;;;5122226;28;20411;-87
2021/06/06 02:49:45;;;;;;;72.88;50.83;;;14.20;99.90;;;;;;5132399;28;20420;-89
2021/06/06 02:52:18;;;;;;;73.47;49.17;;;14.20;99.90;;;;;;5118068;28;20420;-88
2021/06/06 02:54:47;;;;;;;73.50;51.17;;;14.20;99.90;;;;;;5117276;28;20411;-88
2021/06/06 02:57:18;;;;;;;70.78;50.15;;;14.20;99.90;;;;;;5115141;28;20412;-87
2021/06/06 02:59:48;;;;;;;77.88;50.50;;;14.00;99.90;;;;;;5116729;28;20417;-88
2021/06/06 03:02:18;;;;;;;70.28;49.47;;;13.90;99.90;;;;;;5116907;28;20420;-88
2021/06/06 03:04:48;;;;;;;75.30;47.80;;;14.10;99.90;;;;;;5123071;28;20495;-88
2021/06/06 03:07:18;;;;;;;72.38;49.17;;;14.00;99.90;;;;;;5116806;28;20420;-88
2021/06/06 03:09:45;;;;;;;67.50;47.08;;;13.70;99.90;;;;;;5116813;28;20419;-88
2021/06/06 03:12:14;;;;;;;62.85;45.85;;;14.20;99.90;;;;;;5116261;28;20440;-88
2021/06/06 03:14:44;;;;;;;64.07;45.47;;;14.20;99.90;;;;;;5116192;28;20408;-87
2021/06/06 03:17:14;;;;;;;65.82;44.15;;;14.20;99.90;;;;;;5116507;28;20828;-88
2021/06/06 03:19:45;;;;;;;56.17;41.05;;;14.20;99.90;;;;;;5116289;28;20415;-88
2021/06/06 03:22:16;;;;;;;56.53;40.77;;;13.90;99.90;;;;;;5116062;28;20478;-88
2021/06/06 03:24:46;;;;;;;53.25;39.90;;;14.20;99.90;;;;;;5115779;28;20434;-88
2021/06/06 03:27:14;;;;;;;52.58;40.13;;;14.20;99.90;;;;;;5115763;28;20467;-88
2021/06/06 03:29:57;;;;;;;51.95;40.90;;;14.10;99.90;;;;;;5116179;28;20412;-87
2021/06/06 03:32:29;;;;;;;56.75;40.78;;;14.10;99.90;;;;;;5115674;28;20451;-88
2021/06/06 03:34:55;;;;;;;60.43;41.73;;;13.80;99.90;;;;;;5116111;28;20412;-88
2021/06/06 03:37:22;;;;;;;61.17;43.33;;;14.20;99.90;;;;;;5115495;28;20771;-88
2021/06/06 03:39:48;;;;;;;66.53;42.85;;;14.30;99.90;;;;;;5115868;28;20408;-88
2021/06/06 03:42:15;;;;;;;60.67;44.35;;;14.30;99.90;;;;;;5115460;28;20949;-88
2021/06/06 03:44:41;;;;;;;55.85;41.88;;;14.30;99.90;;;;;;5115464;28;20412;-88
2021/06/06 03:47:09;;;;;;;64.30;45.85;;;14.30;99.90;;;;;;5115296;28;20415;-88
2021/06/06 03:49:35;;;;;;;60.40;43.55;;;14.10;99.90;;;;;;5115266;28;20416;-88
2021/06/06 03:52:02;;;;;;;60.70;41.75;;;14.40;99.90;;;;;;5115511;28;20436;-89
2021/06/06 03:54:29;;;;;;;63.47;45.83;;;14.30;99.90;;;;;;5115539;28;20424;-88
2021/06/06 03:56:56;;;;;;;68.30;47.25;;;14.30;99.90;;;;;;5123011;28;20427;-88
2021/06/06 03:59:23;;;;;;;63.95;47.05;;;14.30;99.90;;;;;;5127208;28;20420;-88
2021/06/06 04:01:49;;;;;;;65.90;47.42;;;15.50;99.90;;;;;;5126841;28;20895;-89
2021/06/06 04:04:18;;;;;;;66.70;47.58;;;14.30;99.90;;;;;;5126046;28;20426;-87
2021/06/06 04:06:44;;;;;;;61.17;44.07;;;14.30;99.90;;;;;;5115122;28;20490;-88
2021/06/06 04:09:11;;;;;;;61.40;43.85;;;14.30;99.90;;;;;;5114453;28;20414;-89
2021/06/06 04:11:38;;;;;;;64.15;45.47;;;14.40;99.90;;;;;;5114919;28;20432;-88
2021/06/06 04:14:05;;;;;;;63.03;43.85;;;14.30;99.90;;;;;;5115540;28;20416;-88
2021/06/06 04:16:32;;;;;;;62.78;45.78;;;14.30;99.90;;;;;;5115331;28;20420;-88
2021/06/06 04:18:58;;;;;;;62.90;42.85;;;14.40;99.90;;;;;;5114954;28;20409;-88
2021/06/06 04:21:28;;;;;;;62.30;40.88;;;14.30;99.90;;;;;;5115058;28;20408;-89
2021/06/06 04:23:54;;;;;;;57.75;40.38;;;14.30;99.90;;;;;;5114739;28;20414;-88
2021/06/06 04:26:22;;;;;;;61.65;45.47;;;14.30;99.90;;;;;;5115066;28;20484;-88
2021/06/06 04:28:49;;;;;;;63.22;44.60;;;14.30;99.90;;;;;;5115574;28;20412;-88
2021/06/06 04:31:17;;;;;;;60.05;45.42;;;14.30;99.90;;;;;;5114609;28;20910;-88
2021/06/06 04:33:43;;;;;;;65.63;46.25;;;14.30;99.90;;;;;;5114811;28;20416;-89
2021/06/06 04:36:10;;;;;;;64.18;45.72;;;14.40;99.90;;;;;;5114603;28;20424;-89
2021/06/06 04:38:39;;;;;;;59.00;42.28;;;14.30;99.90;;;;;;5114709;28;20443;-88
2021/06/06 04:41:09;;;;;;;64.15;42.63;;;14.30;99.90;;;;;;5114885;28;20416;-88
2021/06/06 04:43:36;;;;;;;61.67;42.30;;;14.30;99.90;;;;;;5113593;28;20409;-88
2021/06/06 04:46:03;;;;;;;57.33;43.80;;;14.00;99.90;;;;;;5114755;28;20408;-88
2021/06/06 04:48:32;;;;;;;59.80;40.72;;;14.30;99.90;;;;;;5114846;28;20411;-88
2021/06/06 04:51:03;;;;;;;60.15;43.38;;;14.20;99.90;;;;;;5114580;28;20464;-88
2021/06/06 04:53:29;;;;;;;59.40;43.13;;;14.30;99.90;;;;;;5115808;28;20420;-88
2021/06/06 04:55:58;;;;;;;67.82;48.00;;;14.30;99.90;;;;;;5115093;28;20409;-88
2021/06/06 04:58:29;;;;;;;67.25;48.17;;;14.30;99.90;;;;;;5114076;28;20776;-88
2021/06/06 05:00:55;;;;;;;64.53;48.97;;;14.80;99.90;;;;;;5114640;28;20418;-91
2021/06/06 05:03:22;;;;;;;66.50;48.60;;;14.30;99.90;;;;;;5119868;28;20813;-91
2021/06/06 05:05:49;;;;;;;69.25;48.40;;;14.20;99.90;;;;;;5114904;28;20413;-92
2021/06/06 05:08:18;;;;;;;67.32;46.45;;;14.10;99.90;;;;;;5114639;28;20818;-91
2021/06/06 05:10:46;;;;;;;65.38;46.60;;;14.30;99.90;;;;;;5114652;28;20968;-91
2021/06/06 05:13:15;;;;;;;64.05;46.70;;;14.30;99.90;;;;;;5114804;28;20477;-91
2021/06/06 05:15:41;;;;;;;63.72;45.80;;;14.20;99.90;;;;;;5114604;28;20413;-91
2021/06/06 05:18:09;;;;;;;71.10;48.47;;;13.80;99.90;;;;;;5114558;28;20416;-91
2021/06/06 05:20:39;;;;;;;69.55;47.15;;;14.30;99.90;;;;;;5113768;28;20445;-91
2021/06/06 05:23:06;;;;;;;68.40;47.35;;;14.10;99.90;;;;;;5114373;28;20520;-91
2021/06/06 05:25:34;;;;;;;71.93;49.08;;;14.30;99.90;;;;;;5114475;28;20757;-90
2021/06/06 05:28:00;;;;;;;70.25;49.35;;;14.40;99.90;;;;;;5114290;28;20413;-91
2021/06/06 05:30:31;;;;;;;68.53;46.78;;;14.40;99.90;;;;;;5114146;28;20427;-90
2021/06/06 05:32:58;;;;;;;68.50;45.87;;;14.50;99.90;;;;;;5117417;28;20435;-90
2021/06/06 05:35:27;;;;;;;65.35;45.33;;;15.30;99.90;;;;;;5117777;28;20438;-90
2021/06/06 05:37:53;;;;;;;65.88;45.95;;;14.60;99.90;;;;;;5114863;28;20414;-90
2021/06/06 05:40:21;;;;;;;62.13;43.88;;;14.70;99.90;;;;;;5113695;28;20412;-90
2021/06/06 05:42:47;;;;;;;56.80;42.53;;;14.70;99.90;;;;;;5113411;28;20422;-89
2021/06/06 05:45:16;;;;;;;52.00;39.75;;;14.70;99.90;;;;;;5113872;28;20423;-90
2021/06/06 05:47:44;;;;;;;55.87;41.77;;;14.70;99.90;;;;;;5113709;28;20424;-90
2021/06/06 05:50:14;;;;;;;53.95;41.60;;;14.60;99.90;;;;;;5113647;28;20421;-90
2021/06/06 05:52:41;;;;;;;50.28;39.22;;;14.70;99.90;;;;;;5112138;28;20431;-90
2021/06/06 05:55:08;;;;;;;50.90;41.78;;;14.80;99.90;;;;;;5118956;28;20474;-90
2021/06/06 05:57:35;;;;;;;47.47;39.43;;;14.90;99.90;;;;;;5113526;28;20417;-89
2021/06/06 06:00:02;;;;;;;52.15;40.78;;;15.00;99.90;;;;;;5113531;28;20925;-89
2021/06/06 06:02:28;;;;;;;52.00;41.53;;;15.00;99.90;;;;;;5113259;28;20416;-89
2021/06/06 06:04:56;;;;;;;47.67;37.50;;;15.00;99.90;;;;;;5113176;28;20764;-90
2021/06/06 06:07:22;;;;;;;47.83;39.60;;;15.00;99.90;;;;;;5113594;28;20482;-89
2021/06/06 06:09:48;;;;;;;49.90;40.15;;;15.00;99.90;;;;;;5113008;28;20421;-89
2021/06/06 06:12:14;;;;;;;46.35;36.83;;;15.10;99.90;;;;;;5113250;28;20432;-89
2021/06/06 06:14:41;;;;;;;43.45;36.60;;;15.10;99.90;;;;;;5113005;28;20416;-89
2021/06/06 06:17:07;;;;;;;41.92;34.80;;;15.30;99.90;;;;;;5113180;28;20485;-89
2021/06/06 06:19:33;;;;;;;41.08;35.08;;;15.30;99.90;;;;;;5112832;28;20412;-89
2021/06/06 06:22:01;;;;;;;45.47;36.93;;;15.30;99.90;;;;;;5113134;28;20439;-89
2021/06/06 06:24:27;;;;;;;47.28;37.70;;;15.40;99.90;;;;;;5112677;28;20404;-89
2021/06/06 06:26:55;;;;;;;46.58;35.60;;;15.40;99.90;;;;;;5113028;28;20420;-90
2021/06/06 06:29:22;;;;;;;44.03;35.85;;;15.40;99.90;;;;;;5118944;28;20412;-88
2021/06/06 06:31:48;;;;;;;50.90;38.08;;;15.50;99.90;;;;;;5115808;28;20443;-89
2021/06/06 06:34:15;;;;;;;46.08;35.88;;;15.40;99.90;;;;;;5116553;28;20411;-88
2021/06/06 06:36:42;;;;;;;50.63;38.92;;;15.70;99.90;;;;;;5117100;28;20412;-88
2021/06/06 06:39:10;;;;;;;49.28;37.92;;;15.60;99.90;;;;;;5116484;28;20948;-88
2021/06/06 06:41:36;;;;;;;50.60;37.35;;;15.50;99.90;;;;;;5116970;28;20424;-89
2021/06/06 06:44:03;;;;;;;51.90;41.03;;;15.50;99.90;;;;;;5116468;28;20412;-87
2021/06/06 06:46:30;;;;;;;52.55;42.75;;;15.50;99.90;;;;;;5116709;28;20416;-88
2021/06/06 06:48:56;;;;;;;55.17;40.65;;;15.50;99.90;;;;;;5116564;28;20818;-88
2021/06/06 06:51:24;;;;;;;50.55;39.80;;;15.50;99.90;;;;;;5116409;28;20943;-88
2021/06/06 06:53:54;;;;;;;51.80;39.13;;;15.50;99.90;;;;;;5116500;28;20904;-88
2021/06/06 06:56:22;;;;;;;54.53;41.15;;;15.50;99.90;;;;;;5116620;28;20419;-88
2021/06/06 06:58:49;;;;;;;53.95;40.80;;;15.60;99.90;;;;;;5118253;28;20761;-89
2021/06/06 07:01:16;;;;;;;53.38;40.53;;;15.50;99.90;;;;;;5120171;28;20427;-87
2021/06/06 07:03:45;;;;;;;48.90;38.63;;;15.60;99.90;;;;;;5124847;28;20408;-86
2021/06/06 07:06:14;;;;;;;53.03;39.20;;;15.70;99.90;;;;;;5137860;28;20413;-87
2021/06/06 07:08:42;;;;;;;47.10;39.60;;;15.90;99.90;;;;;;5139442;28;20416;-87
2021/06/06 07:11:11;;;;;;;48.60;39.08;;;15.90;99.90;;;;;;5126664;28;20507;-87
2021/06/06 07:13:39;;;;;;;49.88;38.80;;;15.90;99.90;;;;;;5128268;28;20408;-87
2021/06/06 07:16:09;;;;;;;52.63;39.85;;;15.90;99.90;;;;;;5122587;28;20420;-87
2021/06/06 07:18:35;;;;;;;55.38;42.15;;;16.00;99.90;;;;;;5117304;28;20492;-88
2021/06/06 07:21:04;;;;;;;54.15;39.85;;;16.00;99.90;;;;;;5123984;28;20400;-89
2021/06/06 07:23:32;;;;;;;59.50;41.13;;;16.00;99.90;;;;;;5127062;28;20484;-89
2021/06/06 07:26:02;;;;;;;51.85;42.75;;;15.90;99.90;;;;;;5126785;28;20468;-88
2021/06/06 07:28:29;;;;;;;59.17;43.10;;;16.00;99.90;;;;;;5118335;28;20562;-87
2021/06/06 07:30:59;;;;;;;55.92;42.25;;;15.80;99.90;;;;;;5115843;28;20437;-87
2021/06/06 07:33:27;;;;;;;54.15;41.90;;;15.80;99.90;;;;;;5116394;28;20409;-88
2021/06/06 07:35:56;;;;;;;56.10;46.00;;;15.90;99.90;;;;;;5114311;28;20408;-88
2021/06/06 07:38:23;;;;;;;56.70;44.83;;;16.00;99.90;;;;;;5114559;28;20404;-88
2021/06/06 07:40:50;;;;;;;58.65;43.75;;;16.00;99.90;;;;;;5115666;28;20413;-87
2021/06/06 07:43:17;;;;;;;56.85;42.67;;;16.00;99.90;;;;;;5114724;28;20983;-89
2021/06/06 07:45:44;;;;;;;56.55;44.22;;;15.90;99.90;;;;;;5115764;28;20416;-87
2021/06/06 07:48:12;;;;;;;59.75;45.15;;;15.80;99.90;;;;;;5115328;28;20460;-87
2021/06/06 07:50:41;;;;;;;60.90;46.58;;;15.80;99.90;;;;;;5115294;28;20415;-88
2021/06/06 07:53:07;;;;;;;55.42;45.47;;;15.80;99.90;;;;;;5115382;28;20432;-88
2021/06/06 07:55:34;;;;;;;55.28;43.55;;;16.00;99.90;;;;;;5115872;28;20420;-88
2021/06/06 07:58:01;;;;;;;52.97;42.30;;;15.90;99.90;;;;;;5115385;28;20465;-87
2021/06/06 08:00:30;;;;;;;54.35;41.40;;;16.10;99.90;;;;;;5115097;28;20412;-88
2021/06/06 08:02:57;;;;;;;52.85;42.15;;;16.10;99.90;;;;;;5114985;28;20404;-87
2021/06/06 08:05:25;;;;;;;58.70;43.83;;;16.20;99.90;;;;;;5115073;28;20416;-88
2021/06/06 08:07:51;;;;;;;50.60;42.00;;;16.20;99.90;;;;;;5114875;28;20409;-88
2021/06/06 08:10:20;;;;;;;49.63;41.25;;;16.40;99.90;;;;;;5116386;28;20412;-88
2021/06/06 08:12:46;;;;;;;49.30;39.08;;;16.50;99.90;;;;;;5117769;28;20432;-88
2021/06/06 08:15:13;;;;;;;46.97;36.83;;;16.70;99.90;;;;;;5115198;28;20461;-87
2021/06/06 08:17:40;;;;;;;46.70;35.78;;;17.10;99.90;;;;;;5114773;28;20408;-87
2021/06/06 08:20:08;;;;;;;46.10;37.15;;;16.80;99.90;;;;;;5114610;28;20414;-88
2021/06/06 08:22:36;;;;;;;47.45;39.33;;;17.00;99.90;;;;;;5114775;28;20775;-87
2021/06/06 08:25:07;;;;;;;49.55;41.30;;;17.00;99.90;;;;;;5115193;28;20412;-87
2021/06/06 08:27:34;;;;;;;49.58;41.95;;;17.10;99.90;;;;;;5115151;28;20443;-87
2021/06/06 08:30:01;;;;;;;53.63;44.17;;;17.10;99.90;;;;;;5115225;28;20485;-87
2021/06/06 08:32:27;;;;;;;53.13;43.90;;;17.10;99.90;;;;;;5114540;28;20432;-88
2021/06/06 08:34:53;;;;;;;57.67;44.17;;;17.10;99.90;;;;;;5114248;28;20891;-86
2021/06/06 08:37:19;;;;;;;52.63;42.97;;;16.90;99.90;;;;;;5114156;28;20412;-87
2021/06/06 08:39:47;;;;;;;55.17;47.80;;;16.80;99.90;;;;;;5114354;28;20776;-87
2021/06/06 08:42:18;;;;;;;58.83;51.25;;;16.80;99.90;;;;;;5114229;28;20469;-88
2021/06/06 08:44:46;;;;;;;66.30;55.92;;;16.40;99.90;;;;;;5116724;28;20412;-87
2021/06/06 08:47:15;;;;;;;67.78;56.22;;;17.00;99.90;;;;;;5114056;28;20416;-87
2021/06/06 08:49:44;;;;;;;70.30;55.95;;;16.40;99.90;;;;;;5114062;28;20896;-87
2021/06/06 08:52:22;;;;;;;61.53;49.85;;;16.40;99.90;;;;;;5113790;28;20435;-87
2021/06/06 08:55:00;;;;;;;58.22;48.10;;;16.40;99.90;;;;;;5113875;28;20448;-87
2021/06/06 08:57:32;;;;;;;52.10;42.80;;;16.70;99.90;;;;;;5113958;28;20428;-87
2021/06/06 09:00:00;;;;;;;58.13;44.40;;;16.20;99.90;;;;;;5113964;28;20421;-87
2021/06/06 09:02:30;;;;;;;57.90;42.77;;;16.20;99.90;;;;;;5113823;28;20481;-87
2021/06/06 09:04:56;;;;;;;56.23;42.47;;;16.10;99.90;;;;;;5113788;28;20408;-87
2021/06/06 09:07:31;;;;;;;55.03;43.58;;;16.20;99.90;;;;;;5113737;28;20459;-87
2021/06/06 09:10:03;;;;;;;60.50;44.53;;;16.40;99.90;;;;;;5114024;28;20415;-87
2021/06/06 09:12:30;;;;;;;58.80;47.88;;;16.40;99.90;;;;;;5113587;28;20477;-87
2021/06/06 09:14:56;;;;;;;59.30;45.85;;;16.30;99.90;;;;;;5113527;28;20441;-87
2021/06/06 09:17:35;;;;;;;63.38;48.42;;;16.30;99.90;;;;;;5113703;28;20503;-88
2021/06/06 09:20:03;;;;;;;73.72;50.53;;;16.20;99.90;;;;;;5113776;28;20427;-86
2021/06/06 09:22:32;;;;;;;65.60;47.92;;;16.20;99.90;;;;;;5113725;28;20419;-87
2021/06/06 09:25:11;;;;;;;57.17;45.05;;;16.20;99.90;;;;;;5113517;28;20440;-87
2021/06/06 09:27:39;;;;;;;59.72;43.42;;;16.20;99.90;;;;;;5113356;28;20499;-87
2021/06/06 09:30:08;;;;;;;55.78;39.92;;;17.10;99.90;;;;;;5113535;28;20764;-87
2021/06/06 09:32:35;;;;;;;49.55;39.10;;;16.40;99.90;;;;;;5113029;28;20492;-87
2021/06/06 09:35:09;;;;;;;49.47;37.50;;;16.50;99.90;;;;;;5113098;28;20432;-87
2021/06/06 09:37:43;;;;;;;48.17;38.33;;;16.70;99.90;;;;;;5113271;28;20864;-87
2021/06/06 09:40:14;;;;;;;44.75;34.47;;;16.90;99.90;;;;;;5113067;28;20420;-87
2021/06/06 09:42:44;;;;;;;44.15;35.67;;;17.20;99.90;;;;;;5112916;28;20414;-87
2021/06/06 09:45:21;;;;;;;45.08;33.83;;;17.30;99.90;;;;;;5112817;28;20473;-87
2021/06/06 09:48:04;;;;;;;39.33;29.42;;;17.60;99.90;;;;;;5113267;28;20416;-87
2021/06/06 09:50:35;;;;;;;34.90;28.33;;;17.40;99.90;;;;;;5113397;28;20775;-87
2021/06/06 09:53:18;;;;;;;35.70;28.98;;;17.60;99.90;;;;;;5113897;28;20428;-88
2021/06/06 09:55:46;;;;;;;39.13;29.85;;;17.70;99.90;;;;;;5116998;28;20488;-88
2021/06/06 09:58:18;;;;;;;37.35;29.83;;;17.90;99.90;;;;;;5112836;28;20447;-88
2021/06/06 10:00:46;;;;;;;37.72;30.80;;;17.70;99.90;;;;;;5112978;28;20412;-88
2021/06/06 10:03:28;;;;;;;38.92;29.95;;;18.00;99.90;;;;;;5113095;28;20496;-88
2021/06/06 10:06:11;;;;;;;38.47;32.20;;;17.90;99.90;;;;;;5112433;28;20416;-87
2021/06/06 10:08:37;;;;;;;36.47;28.95;;;17.90;99.90;;;;;;5113256;28;20425;-87
2021/06/06 10:11:11;;;;;;;49.67;37.45;;;17.90;99.90;;;;;;5114012;28;20412;-87
2021/06/06 10:13:41;;;;;;;43.50;36.22;;;17.90;99.90;;;;;;5112574;28;20454;-88
2021/06/06 10:16:09;;;;;;;36.53;29.85;;;17.90;99.90;;;;;;5113457;28;20911;-88
2021/06/06 10:18:39;;;;;;;32.33;25.85;;;17.70;99.90;;;;;;5113543;28;20412;-88
2021/06/06 10:21:12;;;;;;;31.92;26.27;;;17.70;99.90;;;;;;5116640;28;20469;-87
2021/06/06 10:23:42;;;;;;;32.13;27.15;;;17.60;99.90;;;;;;5123363;28;20409;-86
2021/06/06 10:26:15;;;;;;;32.28;26.85;;;17.70;99.90;;;;;;5123828;28;20416;-87
2021/06/06 10:28:48;;;;;;;32.77;25.93;;;17.70;99.90;;;;;;5122498;28;20443;-90
2021/06/06 10:31:20;;;;;;;32.38;27.95;;;17.70;99.90;;;;;;5117403;28;20416;-87
2021/06/06 10:33:57;;;;;;;37.75;27.88;;;17.80;99.90;;;;;;5112820;28;20516;-88
2021/06/06 10:36:27;;;;;;;34.75;29.10;;;17.80;99.90;;;;;;5113004;28;20485;-88
2021/06/06 10:39:02;;;;;;;37.20;30.05;;;17.70;99.90;;;;;;5113370;28;20415;-89
2021/06/06 10:41:35;;;;;;;38.28;31.00;;;17.60;99.90;;;;;;5112536;28;20416;-89
2021/06/06 10:44:08;;;;;;;36.60;29.83;;;17.70;99.90;;;;;;5112903;28;20809;-89
2021/06/06 10:46:41;;;;;;;33.22;29.50;;;17.60;99.90;;;;;;5113129;28;20424;-89
2021/06/06 10:49:20;;;;;;;37.05;32.25;;;17.60;99.90;;;;;;5115104;28;20412;-88
2021/06/06 10:51:51;;;;;;;42.00;33.42;;;17.50;99.90;;;;;;5112712;28;20439;-89
2021/06/06 10:54:34;;;;;;;39.33;31.92;;;17.60;99.90;;;;;;5112665;28;20416;-90
2021/06/06 10:57:05;;;;;;;39.22;32.40;;;17.90;99.90;;;;;;5115757;28;20424;-88
2021/06/06 10:59:40;;;;;;;38.70;31.60;;;17.60;99.90;;;;;;5116061;28;20418;-88
2021/06/06 11:02:10;;;;;;;35.25;31.42;;;17.70;99.90;;;;;;5115018;28;20442;-87
2021/06/06 11:04:48;;;;;;;35.83;28.58;;;17.50;99.90;;;;;;5114024;28;20511;-86
2021/06/06 11:07:35;;;;;;;30.67;26.33;;;17.60;99.90;;;;;;5114847;28;20488;-88
2021/06/06 11:10:13;;;;;;;33.05;26.80;;;17.70;99.90;;;;;;5114396;28;20416;-88
2021/06/06 11:12:41;;;;;;;33.08;27.42;;;17.80;99.90;;;;;;5116054;28;20428;-87
2021/06/06 11:15:31;;;;;;;32.53;28.30;;;17.70;99.90;;;;;;5113437;28;20408;-86
2021/06/06 11:18:08;;;;;;;35.38;29.48;;;17.60;99.90;;;;;;5115059;28;20435;-86
2021/06/06 11:20:36;;;;;;;36.20;29.92;;;17.10;99.90;;;;;;5120914;28;20499;-86
2021/06/06 11:23:13;;;;;;;34.05;29.25;;;17.40;99.90;;;;;;5118283;28;20817;-86
2021/06/06 11:25:44;;;;;;;38.80;30.67;;;17.50;99.90;;;;;;5116975;28;20408;-89
2021/06/06 11:28:30;;;;;;;37.70;33.20;;;17.60;99.90;;;;;;5118576;28;20409;-87
2021/06/06 11:30:56;;;;;;;34.00;30.13;;;18.00;99.90;;;;;;5117789;28;20958;-86
2021/06/06 11:33:35;;;;;;;33.47;28.20;;;18.10;99.90;;;;;;5117820;28;20787;-86
2021/06/06 11:36:02;;;;;;;36.13;28.50;;;18.10;99.90;;;;;;5118349;28;20474;-88
2021/06/06 11:38:36;;;;;;;29.38;25.20;;;17.80;99.90;;;;;;5118451;28;20476;-88
2021/06/06 11:41:32;;;;;;;27.90;24.90;;;18.20;99.90;;;;;;5116734;28;20413;-88
2021/06/06 11:44:16;;;;;;;29.63;24.40;;;18.30;99.90;;;;;;5112902;28;20424;-87
2021/06/06 11:46:50;;;;;;;29.63;24.70;;;18.40;99.90;;;;;;5118541;28;20416;-87
2021/06/06 11:49:28;;;;;;;26.50;22.65;;;18.30;99.90;;;;;;5118525;28;20412;-87
2021/06/06 11:51:57;;;;;;;29.97;23.33;;;18.00;99.90;;;;;;5117894;28;20427;-87
2021/06/06 11:54:27;;;;;;;24.27;21.67;;;17.80;99.90;;;;;;5116477;28;20411;-87
2021/06/06 11:56:56;;;;;;;25.10;21.73;;;17.80;99.90;;;;;;5117181;28;20420;-87
2021/06/06 11:59:34;;;;;;;24.00;21.13;;;17.80;99.90;;;;;;5117457;28;20496;-87
2021/06/06 12:02:09;;;;;;;28.48;25.48;;;17.80;99.90;;;;;;5120401;28;20497;-86
2021/06/06 12:04:39;;;;;;;32.87;27.67;;;17.70;99.90;;;;;;5124108;28;20832;-87
2021/06/06 12:07:12;;;;;;;29.27;26.08;;;17.60;99.90;;;;;;5123747;28;20440;-87
2021/06/06 12:09:42;;;;;;;28.80;25.70;;;17.60;99.90;;;;;;5121965;28;20511;-87
2021/06/06 12:12:13;;;;;;;31.88;27.38;;;17.60;99.90;;;;;;5117779;28;20440;-87
2021/06/06 12:14:41;;;;;;;32.15;27.42;;;17.60;99.90;;;;;;5116964;28;20910;-88
2021/06/06 12:17:19;;;;;;;34.25;28.73;;;17.60;99.90;;;;;;5117253;28;20416;-87
2021/06/06 12:19:50;;;;;;;37.30;27.97;;;17.50;99.90;;;;;;5117159;28;20911;-87
2021/06/06 12:22:25;;;;;;;30.13;26.60;;;17.40;99.90;;;;;;5116509;28;20417;-87
2021/06/06 12:24:58;;;;;;;28.15;25.15;;;17.60;99.90;;;;;;5117667;28;20412;-87
2021/06/06 12:27:27;;;;;;;30.88;26.17;;;17.10;99.90;;;;;;5117804;28;20419;-86
2021/06/06 12:29:57;;;;;;;27.05;23.90;;;17.80;99.90;;;;;;5117833;28;20955;-87
2021/06/06 12:32:28;;;;;;;30.80;26.25;;;17.60;99.90;;;;;;5129071;28;20408;-87
2021/06/06 12:34:55;;;;;;;30.88;26.90;;;18.10;99.90;;;;;;5135860;28;20405;-87
2021/06/06 12:37:26;;;;;;;31.90;28.40;;;18.10;99.90;;;;;;5136492;28;20436;-88